Time;durP1;ratioP1;P1;durP2;ratioP2;P2;SDS_P1;SDS_P2;PMS_P1;PMS_P2;Temp;Humidity;BMP_temperature;BMP_pressure;BME280_temperature;BME280_humidity;BME280_pressure;Samples;Min_cycle;Max_cycle;Signal;HPM_P1;HPM_P2
2021/06/23 00:01:05;;;;;;;40.00;24.75;;;;;;;12.77;92.46;101118.63;5096164;28;20044;-60
2021/06/23 00:03:33;;;;;;;40.22;24.67;;;;;;;12.75;92.54;101123.91;5076271;28;20133;-60
2021/06/23 00:05:59;;;;;;;39.83;24.92;;;;;;;12.74;92.04;101130.00;5096760;28;20073;-59
2021/06/23 00:08:25;;;;;;;43.50;26.35;;;;;;;12.73;92.61;101136.13;5098120;27;20449;-59
2021/06/23 00:10:51;;;;;;;47.05;24.98;;;;;;;12.73;92.76;101137.91;5096814;28;20048;-60
2021/06/23 00:13:19;;;;;;;41.03;24.02;;;;;;;13.09;91.55;101134.13;5099312;27;20581;-60
2021/06/23 00:15:45;;;;;;;37.35;23.05;;;;;;;12.91;91.17;101129.03;5079186;28;20416;-59
2021/06/23 00:18:11;;;;;;;39.25;24.20;;;;;;;12.91;90.69;101129.03;5096771;28;20518;-60
2021/06/23 00:20:37;;;;;;;39.83;23.65;;;;;;;12.81;91.03;101130.84;5060501;28;20040;-60
2021/06/23 00:23:03;;;;;;;33.50;22.63;;;;;;;12.77;91.56;101135.22;5096718;28;20035;-60
2021/06/23 00:25:40;;;;;;;35.22;23.45;;;;;;;12.73;91.23;101154.50;5096792;27;20176;-59
2021/06/23 00:28:06;;;;;;;39.78;23.70;;;;;;;12.78;90.87;101146.63;5097975;27;20119;-58
2021/06/23 00:30:32;;;;;;;35.72;23.02;;;;;;;12.73;91.31;101148.38;5096755;27;20030;-60
2021/06/23 00:33:05;;;;;;;40.20;24.55;;;;;;;12.63;91.23;101150.19;5097196;28;20053;-58
2021/06/23 00:35:31;;;;;;;38.97;23.65;;;;;;;12.68;91.74;101158.03;5095926;28;20054;-58
2021/06/23 00:37:56;;;;;;;36.20;24.13;;;;;;;12.62;91.34;101156.31;5097374;27;20032;-58
2021/06/23 00:40:22;;;;;;;36.70;24.25;;;;;;;12.68;91.35;101160.66;5100163;28;20061;-58
2021/06/23 00:42:48;;;;;;;34.22;22.55;;;;;;;12.61;91.57;101154.56;5078164;28;20354;-59
2021/06/23 00:45:16;;;;;;;37.95;23.55;;;;;;;12.64;91.82;101156.31;5095978;28;20032;-59
2021/06/23 00:47:44;;;;;;;33.40;22.48;;;;;;;12.70;90.87;101158.91;5078655;28;20047;-59
2021/06/23 00:50:14;;;;;;;36.33;23.98;;;;;;;12.69;91.88;101157.16;5094934;28;20040;-59
2021/06/23 00:52:48;;;;;;;34.90;23.15;;;;;;;12.64;91.57;101153.69;5098121;28;20028;-58
2021/06/23 00:55:23;;;;;;;37.45;25.23;;;;;;;12.51;92.61;101152.88;5098150;28;20031;-57
2021/06/23 00:57:51;;;;;;;37.15;23.33;;;;;;;12.47;92.75;101146.75;5112761;27;20040;-60
2021/06/23 01:00:31;;;;;;;34.10;22.75;;;;;;;12.47;92.42;101144.16;5079978;28;20792;-58
2021/06/23 01:03:00;;;;;;;37.67;24.05;;;;;;;12.51;92.14;101142.38;5095006;28;20115;-56
2021/06/23 01:05:28;;;;;;;34.10;22.27;;;;;;;12.62;92.30;101145.81;5079977;28;20167;-59
2021/06/23 01:07:55;;;;;;;36.03;21.95;;;;;;;12.43;92.61;101138.06;5099209;28;20379;-59
2021/06/23 01:10:21;;;;;;;32.28;21.42;;;;;;;12.65;92.17;101144.94;5078124;28;20027;-59
2021/06/23 01:13:24;;;;;;;32.58;21.13;;;;;;;12.62;92.27;101144.97;5078178;28;20105;-59
2021/06/23 01:15:54;;;;;;;30.65;20.98;;;;;;;12.57;92.10;101143.22;5095429;28;20046;-58
2021/06/23 01:18:22;;;;;;;29.92;21.05;;;;;;;12.57;91.90;101148.47;5111746;27;20124;-58
2021/06/23 01:20:49;;;;;;;28.88;21.35;;;;;;;12.39;91.93;101143.31;5077247;28;20416;-57
2021/06/23 01:23:16;;;;;;;32.33;20.23;;;;;;;12.57;90.67;101151.09;5076660;28;20059;-60
2021/06/23 01:25:43;;;;;;;30.67;20.27;;;;;;;12.64;90.86;101151.06;5096442;28;20443;-59
2021/06/23 01:28:11;;;;;;;35.28;21.10;;;;;;;12.54;91.65;101152.84;5097519;28;20203;-59
2021/06/23 01:30:44;;;;;;;32.75;22.00;;;;;;;12.48;91.58;101163.38;5061675;28;20048;-56
2021/06/23 01:33:26;;;;;;;31.90;21.63;;;;;;;12.44;91.67;101167.75;5079191;28;20522;-60
2021/06/23 01:35:53;;;;;;;36.50;22.30;;;;;;;12.46;91.28;101173.00;5078970;28;20034;-60
2021/06/23 01:38:19;;;;;;;33.80;22.63;;;;;;;12.39;91.46;101164.28;5100129;27;20483;-58
2021/06/23 01:40:45;;;;;;;32.65;20.23;;;;;;;12.47;90.68;101162.50;5078834;28;20040;-58
2021/06/23 01:43:11;;;;;;;30.60;20.88;;;;;;;12.63;90.60;101163.31;5115738;27;20283;-57
2021/06/23 01:45:38;;;;;;;27.67;20.45;;;;;;;12.52;90.60;101160.72;5082866;28;20487;-59
2021/06/23 01:48:06;;;;;;;34.10;22.65;;;;;;;12.47;91.21;101159.00;5082131;27;20042;-60
2021/06/23 01:50:34;;;;;;;32.03;22.13;;;;;;;12.42;91.28;101159.06;5098974;28;20050;-58
2021/06/23 01:53:01;;;;;;;33.30;22.17;;;;;;;12.49;91.64;101166.00;5065071;28;20059;-60
2021/06/23 01:55:28;;;;;;;28.48;20.55;;;;;;;12.52;90.87;101165.13;5100664;27;20115;-58
2021/06/23 01:58:15;;;;;;;30.27;20.42;;;;;;;12.50;91.49;101159.88;5080337;28;20577;-60
2021/06/23 02:01:05;;;;;;;31.90;21.45;;;;;;;12.62;91.09;101164.19;5067519;28;20047;-60
2021/06/23 02:03:34;;;;;;;29.60;21.10;;;;;;;12.57;91.12;101160.69;5078426;28;20039;-59
2021/06/23 02:06:04;;;;;;;29.02;20.75;;;;;;;12.49;91.65;101159.88;5080688;28;20050;-58
2021/06/23 02:08:44;;;;;;;31.10;21.40;;;;;;;12.50;91.09;101162.50;5079929;28;20055;-58
2021/06/23 02:11:45;;;;;;;29.38;19.80;;;;;;;12.53;91.22;101161.59;5080818;28;20096;-59
2021/06/23 02:14:40;;;;;;;33.53;21.67;;;;;;;12.46;91.61;101166.03;5098413;28;20047;-58
2021/06/23 02:17:28;;;;;;;29.00;20.35;;;;;;;12.47;90.78;101162.50;5080175;28;20450;-58
2021/06/23 02:20:07;;;;;;;26.08;18.88;;;;;;;12.74;88.84;101165.88;5065747;28;20044;-58
2021/06/23 02:22:38;;;;;;;27.17;18.77;;;;;;;12.65;89.54;101171.16;5099435;27;21804;-58
2021/06/23 02:25:14;;;;;;;24.70;18.70;;;;;;;12.75;87.89;101175.47;5104055;27;20025;-59
2021/06/23 02:28:12;;;;;;;25.95;20.48;;;;;;;12.66;90.59;101179.03;5076018;28;20621;-58
2021/06/23 02:30:38;;;;;;;26.00;19.75;;;;;;;12.51;91.47;101179.09;5080582;28;20440;-59
2021/06/23 02:33:06;;;;;;;27.27;20.20;;;;;;;12.39;91.45;101178.28;5081321;28;20684;-58
2021/06/23 02:35:39;;;;;;;29.48;20.60;;;;;;;12.42;91.70;101177.41;5097629;28;20121;-58
2021/06/23 02:38:15;;;;;;;31.48;20.90;;;;;;;12.34;91.75;101184.44;5081334;28;20492;-58
2021/06/23 02:40:42;;;;;;;34.92;20.65;;;;;;;12.30;91.77;101182.69;5110569;27;20055;-58
2021/06/23 02:43:09;;;;;;;29.73;19.80;;;;;;;12.34;90.87;101181.81;5083715;28;20035;-59
2021/06/23 02:45:35;;;;;;;28.25;19.63;;;;;;;12.25;91.58;101182.69;5098984;27;20028;-59
2021/06/23 02:48:04;;;;;;;30.23;19.67;;;;;;;12.22;91.42;101180.09;5099995;27;20043;-59
2021/06/23 02:51:05;;;;;;;28.42;20.88;;;;;;;12.27;92.00;101184.44;5076929;27;20132;-59
2021/06/23 02:53:34;;;;;;;26.15;18.98;;;;;;;12.23;92.02;101180.06;5101919;28;20426;-57
2021/06/23 02:56:01;;;;;;;31.73;20.35;;;;;;;12.22;91.99;101170.47;5099829;27;20088;-59
2021/06/23 02:58:36;;;;;;;27.88;19.33;;;;;;;12.26;91.40;101180.06;5079904;28;20043;-59
2021/06/23 03:01:02;;;;;;;27.43;20.03;;;;;;;12.32;91.84;101187.03;5100272;27;20062;-59
2021/06/23 03:03:41;;;;;;;26.13;18.45;;;;;;;12.43;91.40;101187.00;5080777;28;20288;-58
2021/06/23 03:06:08;;;;;;;28.88;20.05;;;;;;;12.44;90.97;101189.59;5078445;28;20036;-59
2021/06/23 03:08:34;;;;;;;25.35;20.10;;;;;;;12.33;91.36;101187.91;5077988;28;20264;-57
2021/06/23 03:11:02;;;;;;;31.25;20.45;;;;;;;12.39;91.20;101185.25;5080850;28;20641;-59
2021/06/23 03:13:58;;;;;;;28.25;19.27;;;;;;;12.30;91.75;101190.56;5079311;28;20039;-58
2021/06/23 03:16:40;;;;;;;25.25;18.15;;;;;;;12.32;90.66;101189.66;5083646;28;20032;-59
2021/06/23 03:19:06;;;;;;;29.52;19.00;;;;;;;12.35;91.02;101194.00;5101673;27;20439;-58
2021/06/23 03:21:34;;;;;;;27.40;19.45;;;;;;;12.35;90.90;101188.78;5082353;28;20059;-58
2021/06/23 03:24:01;;;;;;;27.42;19.75;;;;;;;12.43;91.11;101185.25;5082753;28;20047;-58
2021/06/23 03:26:31;;;;;;;26.10;17.10;;;;;;;12.54;89.07;101185.19;5080563;28;20031;-56
2021/06/23 03:29:27;;;;;;;31.42;19.13;;;;;;;12.46;90.24;101187.00;5094284;27;20064;-59
2021/06/23 03:31:53;;;;;;;24.77;18.60;;;;;;;12.45;90.49;101182.63;5104108;27;20169;-58
2021/06/23 03:34:24;;;;;;;29.08;18.13;;;;;;;12.33;91.20;101188.78;5080740;28;20035;-57
2021/06/23 03:36:59;;;;;;;28.67;19.50;;;;;;;12.29;91.42;101183.56;5098246;27;20467;-57
2021/06/23 03:39:26;;;;;;;25.67;19.00;;;;;;;12.32;90.70;101188.78;5080908;28;20031;-57
2021/06/23 03:41:59;;;;;;;28.75;19.27;;;;;;;12.41;91.50;101196.63;5115312;27;20040;-59
2021/06/23 03:44:24;;;;;;;21.83;17.33;;;;;;;12.43;90.56;101189.63;5098099;28;20299;-58
2021/06/23 03:46:52;;;;;;;24.90;18.45;;;;;;;12.38;90.91;101199.28;5062390;28;20043;-59
2021/06/23 03:49:18;;;;;;;24.30;18.00;;;;;;;12.40;88.86;101200.13;5085440;28;20035;-58
2021/06/23 03:51:45;;;;;;;25.08;18.73;;;;;;;12.45;90.89;101200.97;5098907;27;20037;-58
2021/06/23 03:54:11;;;;;;;26.52;17.83;;;;;;;12.63;90.35;101202.66;5080423;28;20059;-59
2021/06/23 03:56:43;;;;;;;25.63;17.08;;;;;;;12.42;89.57;101198.38;5097476;27;20075;-57
2021/06/23 03:59:10;;;;;;;28.65;17.40;;;;;;;12.46;88.84;101200.13;5099404;27;20574;-59
2021/06/23 04:01:35;;;;;;;22.10;17.77;;;;;;;12.45;88.74;101203.59;5062056;27;20123;-57
2021/06/23 04:04:12;;;;;;;26.60;17.88;;;;;;;12.40;90.72;101207.97;5090553;27;20500;-59
2021/06/23 04:07:13;;;;;;;21.30;16.95;;;;;;;12.41;88.76;101207.13;5076025;28;20453;-59
2021/06/23 04:09:39;;;;;;;25.95;19.15;;;;;;;12.38;90.83;101202.75;5076990;28;20035;-58
2021/06/23 04:12:13;;;;;;;25.80;18.02;;;;;;;12.45;90.99;101195.75;5078169;27;20039;-59
2021/06/23 04:14:47;;;;;;;26.58;18.30;;;;;;;12.29;91.11;101196.66;5079441;28;20042;-59
2021/06/23 04:17:13;;;;;;;22.98;17.52;;;;;;;12.23;90.58;101200.19;5077367;28;20499;-58
2021/06/23 04:19:39;;;;;;;25.55;18.58;;;;;;;12.22;91.14;101199.28;5075474;28;20027;-56
2021/06/23 04:22:09;;;;;;;26.90;18.90;;;;;;;12.23;91.47;101194.94;5063409;27;20035;-58
2021/06/23 04:24:35;;;;;;;31.38;19.05;;;;;;;12.24;91.24;101205.41;5096743;27;20039;-58
2021/06/23 04:27:03;;;;;;;30.23;18.65;;;;;;;12.36;91.61;101201.00;5079317;28;20031;-57
2021/06/23 04:29:33;;;;;;;25.30;18.55;;;;;;;12.26;91.36;101203.66;5073035;28;20411;-58
2021/06/23 04:32:00;;;;;;;25.95;18.85;;;;;;;12.27;90.34;101192.28;5092851;27;20113;-57
2021/06/23 04:34:28;;;;;;;;;;;;;;;12.37;90.56;101208.00;5073551;28;20032;-58
2021/06/23 04:37:03;;;;;;;23.15;18.70;;;;;;;12.37;91.15;101200.13;5076325;28;21287;-59
2021/06/23 04:39:29;;;;;;;31.45;19.65;;;;;;;12.46;91.37;101200.13;5058105;28;20124;-58
2021/06/23 04:42:07;;;;;;;;;;;;;;;12.48;91.19;101200.97;5074962;28;20078;-58
2021/06/23 04:44:38;;;;;;;26.45;19.98;;;;;;;12.35;91.81;101202.78;5089555;28;19920;-56
2021/06/23 04:47:04;;;;;;;25.83;18.27;;;;;;;12.30;91.58;101201.03;5055530;28;20643;-57
2021/06/23 04:49:30;;;;;;;28.02;18.77;;;;;;;12.30;91.96;101201.03;5094738;28;20039;-58
2021/06/23 04:52:31;;;;;;;24.80;17.27;;;;;;;12.33;91.41;101208.88;5088379;28;20032;-57
2021/06/23 04:54:58;;;;;;;23.10;18.25;;;;;;;12.46;92.20;101204.47;5092787;28;20643;-57
2021/06/23 04:57:23;;;;;;;27.30;18.90;;;;;;;12.55;91.67;101196.56;5076228;28;20151;-59
2021/06/23 04:59:49;;;;;;;26.38;19.20;;;;;;;12.39;91.93;101201.00;5071998;28;20036;-58
2021/06/23 05:02:17;;;;;;;31.73;21.23;;;;;;;12.34;92.41;101208.88;5088017;28;20529;-58
2021/06/23 05:04:46;;;;;;;27.50;19.05;;;;;;;12.46;91.33;101196.59;5092902;28;20032;-57
2021/06/23 05:07:14;;;;;;;25.33;18.92;;;;;;;12.43;91.31;101200.09;5093501;28;20177;-56
2021/06/23 05:09:40;;;;;;;23.95;17.80;;;;;;;12.49;90.11;101197.47;5093392;28;20047;-57
2021/06/23 05:12:07;;;;;;;27.70;18.65;;;;;;;12.41;90.61;101205.34;5093354;28;20411;-57
2021/06/23 05:14:32;;;;;;;27.60;19.52;;;;;;;12.41;91.74;101204.50;5073835;28;20063;-57
2021/06/23 05:16:58;;;;;;;25.85;19.40;;;;;;;12.57;91.08;101206.19;5092874;28;20130;-58
2021/06/23 05:19:24;;;;;;;28.05;19.83;;;;;;;12.45;92.19;101216.72;5073417;28;20100;-57
2021/06/23 05:21:51;;;;;;;25.35;17.88;;;;;;;12.41;91.43;101209.75;5073096;28;20039;-57
2021/06/23 05:24:17;;;;;;;28.80;20.02;;;;;;;12.49;91.76;101209.69;5073115;28;20031;-56
2021/06/23 05:26:46;;;;;;;27.92;19.50;;;;;;;12.51;91.58;101211.44;5093187;28;20068;-57
2021/06/23 05:29:13;;;;;;;30.50;19.13;;;;;;;12.55;91.44;101210.53;5091732;28;20032;-58
2021/06/23 05:31:39;;;;;;;31.30;20.02;;;;;;;12.50;91.75;101204.47;5092997;28;20148;-57
2021/06/23 05:34:05;;;;;;;30.25;20.95;;;;;;;12.45;92.34;101214.09;5075863;28;20096;-58
2021/06/23 05:36:31;;;;;;;30.83;18.98;;;;;;;12.46;92.35;101210.59;5092307;28;20043;-57
2021/06/23 05:38:56;;;;;;;25.65;19.13;;;;;;;12.48;92.21;101211.44;5094468;28;20180;-58
2021/06/23 05:41:22;;;;;;;26.48;17.75;;;;;;;12.55;91.08;101212.31;5091694;28;20553;-57
2021/06/23 05:43:50;;;;;;;30.60;21.17;;;;;;;12.54;91.57;101216.66;5092378;28;20123;-57
2021/06/23 05:46:18;;;;;;;28.05;19.13;;;;;;;12.56;91.34;101211.44;5095760;28;20236;-55
2021/06/23 05:48:44;;;;;;;26.00;20.10;;;;;;;12.62;90.78;101223.66;5072709;28;20047;-57
2021/06/23 05:51:10;;;;;;;30.52;21.58;;;;;;;12.58;92.22;101220.16;5093250;28;20048;-58
2021/06/23 05:53:35;;;;;;;29.02;19.98;;;;;;;12.50;92.88;101220.19;5093980;28;20507;-57
2021/06/23 05:56:01;;;;;;;32.35;21.02;;;;;;;12.55;92.03;101223.66;5094516;28;20040;-58
2021/06/23 05:58:27;;;;;;;28.60;20.77;;;;;;;12.56;92.27;101233.28;5094966;28;20028;-56
2021/06/23 06:00:52;;;;;;;27.60;18.90;;;;;;;12.58;92.13;101228.88;5094276;28;20048;-57
2021/06/23 06:03:18;;;;;;;27.23;20.17;;;;;;;12.60;92.94;101239.41;5072724;28;20040;-56
2021/06/23 06:05:44;;;;;;;30.63;20.08;;;;;;;12.59;90.75;101235.03;5094445;28;20039;-57
2021/06/23 06:08:10;;;;;;;25.88;18.60;;;;;;;12.70;90.94;101237.59;5092836;28;20131;-58
2021/06/23 06:10:36;;;;;;;27.55;19.83;;;;;;;12.63;90.32;101241.09;5091309;28;20508;-55
2021/06/23 06:13:05;;;;;;;27.63;19.92;;;;;;;12.67;90.88;101242.84;5094198;28;20035;-56
2021/06/23 06:15:33;;;;;;;28.08;19.85;;;;;;;12.81;90.79;101250.66;5073875;28;20130;-57
2021/06/23 06:18:08;;;;;;;29.08;19.83;;;;;;;12.74;90.04;101249.84;5092858;28;20147;-56
2021/06/23 06:20:35;;;;;;;28.05;20.17;;;;;;;12.74;91.81;101258.56;5076927;28;20044;-56
2021/06/23 06:23:02;;;;;;;27.75;20.52;;;;;;;12.67;90.78;101258.56;5076220;28;20566;-57
2021/06/23 06:25:28;;;;;;;25.48;19.05;;;;;;;12.76;90.56;101253.31;5095980;27;20042;-57
2021/06/23 06:27:54;;;;;;;25.85;18.85;;;;;;;12.76;90.90;101255.94;5099141;27;20047;-58
2021/06/23 06:30:22;;;;;;;24.90;19.00;;;;;;;12.72;90.25;101262.97;5098865;27;20044;-57
2021/06/23 06:32:49;;;;;;;25.85;19.27;;;;;;;12.72;88.97;101259.44;5092493;27;20653;-57
2021/06/23 06:35:14;;;;;;;28.17;18.65;;;;;;;13.03;88.89;101275.03;5099307;27;20044;-58
2021/06/23 06:37:40;;;;;;;32.55;19.50;;;;;;;13.02;89.44;101276.78;5097606;27;20357;-53
2021/06/23 06:40:07;;;;;;;31.23;20.85;;;;;;;12.85;91.04;101281.25;5096131;27;20677;-57
2021/06/23 06:42:33;;;;;;;28.52;20.35;;;;;;;12.85;91.59;101283.88;5096088;27;20044;-58
2021/06/23 06:44:59;;;;;;;25.10;18.42;;;;;;;12.76;88.89;101283.03;5095446;27;20052;-56
2021/06/23 06:47:25;;;;;;;25.75;19.27;;;;;;;12.80;89.17;101280.41;5097604;27;20043;-57
2021/06/23 06:49:51;;;;;;;30.90;20.23;;;;;;;12.83;90.62;101281.25;5096992;28;20059;-57
2021/06/23 06:52:19;;;;;;;27.83;20.35;;;;;;;12.83;90.93;101285.63;5096495;28;20035;-56
2021/06/23 06:54:44;;;;;;;25.17;18.92;;;;;;;12.75;90.63;101277.78;5079185;28;20031;-57
2021/06/23 06:57:11;;;;;;;29.95;19.70;;;;;;;12.69;91.41;101283.06;5096693;28;20035;-58
2021/06/23 06:59:36;;;;;;;30.42;20.35;;;;;;;12.64;92.32;101284.81;5075939;28;20111;-56
2021/06/23 07:02:04;;;;;;;26.13;18.05;;;;;;;12.78;90.70;101293.53;5068668;28;20053;-57
2021/06/23 07:04:30;;;;;;;28.50;19.48;;;;;;;12.70;89.37;101295.31;5096577;27;20499;-56
2021/06/23 07:06:56;;;;;;;28.02;18.83;;;;;;;12.74;89.82;101302.28;5076941;28;20318;-58
2021/06/23 07:09:22;;;;;;;24.95;18.17;;;;;;;12.74;89.21;101286.56;5097469;27;20039;-56
2021/06/23 07:11:49;;;;;;;24.23;17.38;;;;;;;12.89;88.70;101291.75;5094354;27;20048;-56
2021/06/23 07:14:15;;;;;;;22.60;16.38;;;;;;;13.00;89.57;101293.44;5076611;28;20089;-55
2021/06/23 07:16:42;;;;;;;31.35;19.00;;;;;;;12.87;90.98;101296.09;5097245;27;20527;-58
2021/06/23 07:19:07;;;;;;;25.10;17.45;;;;;;;12.89;87.10;101290.84;5096739;28;20027;-56
2021/06/23 07:21:33;;;;;;;27.77;18.15;;;;;;;12.97;88.99;101298.69;5096022;27;20067;-58
2021/06/23 07:23:59;;;;;;;26.38;18.58;;;;;;;12.91;90.07;101300.47;5098714;27;20494;-57
2021/06/23 07:26:26;;;;;;;23.42;17.38;;;;;;;12.86;87.35;101302.25;5093175;28;20123;-56
2021/06/23 07:28:53;;;;;;;22.75;17.60;;;;;;;12.86;87.89;101303.97;5096871;27;20103;-55
2021/06/23 07:34:18;;;;;;;27.33;17.60;;;;;;;12.97;88.20;101304.81;5094735;28;20588;-53
2021/06/23 07:36:54;;;;;;;22.50;16.95;;;;;;;12.90;88.90;101300.47;5093530;27;20052;-54
2021/06/23 07:39:20;;;;;;;27.17;17.55;;;;;;;12.83;88.51;101306.63;5093823;27;20063;-56
2021/06/23 07:41:48;;;;;;;24.70;17.08;;;;;;;12.81;88.86;101298.75;5092972;27;20233;-57
2021/06/23 07:44:17;;;;;;;26.83;17.02;;;;;;;12.90;88.63;101298.75;5096975;27;20045;-57
2021/06/23 07:46:48;;;;;;;22.60;17.38;;;;;;;12.90;90.02;101304.00;5097066;27;20046;-53
2021/06/23 07:49:16;;;;;;;28.50;19.10;;;;;;;12.88;90.33;101300.47;5096270;28;20575;-58
2021/06/23 07:52:00;;;;;;;31.23;18.65;;;;;;;12.86;90.09;101298.75;5096514;27;20046;-56
2021/06/23 08:10:24;;;;;;;22.67;16.45;;;;;;;12.99;87.31;101310.94;5093209;27;20643;-56
2021/06/23 08:12:54;;;;;;;23.60;17.60;;;;;;;13.01;88.01;101310.94;5097704;28;20039;-55
2021/06/23 08:15:21;;;;;;;27.25;18.15;;;;;;;12.93;88.60;101303.97;5094569;27;20041;-53
2021/06/23 08:17:48;;;;;;;24.85;17.23;;;;;;;13.08;87.57;101318.78;5073009;28;20495;-57
2021/06/23 08:20:14;;;;;;;22.75;17.17;;;;;;;13.21;87.22;101313.44;5073415;28;20040;-55
2021/06/23 08:22:39;;;;;;;28.25;18.35;;;;;;;13.15;87.83;101314.34;5091475;27;20295;-56
2021/06/23 08:25:06;;;;;;;26.52;17.90;;;;;;;13.11;88.12;101318.75;5096304;27;20058;-53
2021/06/23 08:27:31;;;;;;;25.70;17.40;;;;;;;13.19;88.93;101321.31;5071643;28;20130;-55
2021/06/23 08:29:58;;;;;;;24.48;17.83;;;;;;;13.20;88.92;101316.97;5093908;27;20091;-57
2021/06/23 08:32:23;;;;;;;25.60;17.85;;;;;;;13.32;87.37;101313.38;5096684;28;21336;-55
2021/06/23 08:34:49;;;;;;;22.77;16.40;;;;;;;13.29;86.59;101320.41;5094002;28;20081;-54
2021/06/23 08:37:15;;;;;;;24.05;17.13;;;;;;;13.20;87.73;101314.34;5095660;28;20450;-53
2021/06/23 08:39:40;;;;;;;22.77;16.25;;;;;;;13.33;87.69;101318.63;5094407;27;20054;-52
2021/06/23 08:42:07;;;;;;;23.02;18.30;;;;;;;13.26;86.52;101319.53;5094275;28;20065;-55
2021/06/23 08:44:33;;;;;;;24.30;16.77;;;;;;;13.28;85.18;101320.44;5094053;28;20537;-56
2021/06/23 08:47:00;;;;;;;24.25;16.55;;;;;;;13.35;87.67;101318.66;5094663;27;20039;-52
2021/06/23 08:49:27;;;;;;;27.48;17.90;;;;;;;13.43;88.08;101324.72;5095340;28;20129;-55
2021/06/23 08:51:54;;;;;;;23.38;16.77;;;;;;;13.69;85.24;101315.81;5070617;28;20445;-56
2021/06/23 08:54:21;;;;;;;23.45;18.15;;;;;;;13.68;86.88;101325.47;5078267;28;20044;-54
2021/06/23 08:56:47;;;;;;;20.88;16.73;;;;;;;13.55;86.00;101326.41;5075029;28;20487;-55
2021/06/23 08:59:13;;;;;;;26.10;18.48;;;;;;;13.50;86.96;101329.09;5094730;28;20116;-54
2021/06/23 09:01:42;;;;;;;23.23;17.88;;;;;;;13.52;87.35;101329.94;5093491;28;20057;-53
2021/06/23 09:04:10;;;;;;;24.35;17.13;;;;;;;13.58;86.55;101336.91;5107867;27;20031;-56
2021/06/23 09:06:43;;;;;;;24.25;17.67;;;;;;;13.76;85.90;101328.00;5073015;28;20032;-56
2021/06/23 09:09:19;;;;;;;25.73;17.33;;;;;;;13.73;86.95;101328.03;5095043;28;20138;-56
2021/06/23 09:11:46;;;;;;;26.45;18.02;;;;;;;13.76;87.03;101330.66;5089009;28;20043;-53
2021/06/23 09:14:14;;;;;;;26.60;19.77;;;;;;;13.82;87.08;101330.63;5071013;28;20075;-51
2021/06/23 09:17:05;;;;;;;24.55;18.70;;;;;;;13.92;86.52;101320.91;5095177;28;20285;-52
2021/06/23 09:19:36;;;;;;;27.30;17.45;;;;;;;14.02;85.14;101330.44;5096898;28;20031;-54
2021/06/23 09:22:03;;;;;;;24.58;16.95;;;;;;;14.30;82.84;101324.94;5070304;28;20390;-53
2021/06/23 09:24:38;;;;;;;24.20;17.55;;;;;;;14.09;84.87;101337.38;5097283;28;20052;-54
2021/06/23 09:27:21;;;;;;;23.63;17.27;;;;;;;14.44;83.18;101337.94;5095347;28;20040;-54
2021/06/23 09:29:49;;;;;;;22.77;16.65;;;;;;;14.48;81.79;101329.13;5093902;28;20416;-52
2021/06/23 09:32:14;;;;;;;23.15;17.90;;;;;;;14.30;83.53;101323.19;5094494;28;20048;-50
2021/06/23 09:34:44;;;;;;;22.42;16.20;;;;;;;14.26;83.89;101321.47;5094804;28;20042;-51
2021/06/23 09:37:23;;;;;;;22.88;15.68;;;;;;;14.53;83.03;101327.34;5092345;28;20169;-52
2021/06/23 09:39:49;;;;;;;26.40;16.85;;;;;;;14.52;82.09;101322.94;5095061;28;20062;-55
2021/06/23 09:42:15;;;;;;;21.70;15.90;;;;;;;14.42;82.71;101324.81;5092404;28;20047;-55
2021/06/23 09:45:05;;;;;;;23.77;16.90;;;;;;;14.35;83.20;101327.53;5092416;28;20051;-52
2021/06/23 09:47:30;;;;;;;25.33;17.13;;;;;;;14.34;83.90;101328.41;5093755;28;20055;-53
2021/06/23 09:49:56;;;;;;;22.75;16.48;;;;;;;14.40;83.11;101333.59;5094235;28;20087;-52
2021/06/23 09:52:21;;;;;;;22.40;17.02;;;;;;;14.39;82.73;101339.78;5093258;28;20084;-51
2021/06/23 09:54:59;;;;;;;29.60;18.75;;;;;;;14.43;83.47;101338.84;5090621;28;20051;-52
2021/06/23 09:57:26;;;;;;;23.30;19.23;;;;;;;14.52;81.92;101335.25;5089677;28;20128;-51
2021/06/23 09:59:56;;;;;;;22.20;17.80;;;;;;;14.56;82.47;101329.94;5095059;27;20055;-53
2021/06/23 10:02:24;;;;;;;24.48;18.42;;;;;;;14.82;83.11;101329.66;5096406;28;20435;-52
2021/06/23 10:04:52;;;;;;;23.30;17.58;;;;;;;15.22;80.92;101324.81;5097714;27;20031;-51
2021/06/23 10:07:41;;;;;;;25.73;19.05;;;;;;;15.07;81.92;101333.78;5097188;27;20043;-53
2021/06/23 10:10:09;;;;;;;28.35;17.92;;;;;;;15.03;81.36;101332.06;5094963;28;21019;-51
2021/06/23 10:12:35;;;;;;;27.90;18.93;;;;;;;15.23;80.77;101332.69;5096645;27;20550;-53
2021/06/23 10:15:00;;;;;;;26.75;19.55;;;;;;;15.56;78.21;101327.84;5095565;27;20052;-53
2021/06/23 10:17:27;;;;;;;24.90;19.40;;;;;;;15.40;80.23;101328.94;5097391;28;20043;-50
2021/06/23 10:19:54;;;;;;;22.73;18.00;;;;;;;15.28;80.28;101336.09;5079889;27;20347;-54
2021/06/23 10:22:20;;;;;;;25.85;18.83;;;;;;;15.31;81.45;101327.28;5096681;28;20040;-52
2021/06/23 10:24:49;;;;;;;27.13;19.17;;;;;;;15.25;80.17;101325.63;5099211;28;20503;-51
2021/06/23 10:27:17;;;;;;;22.30;18.05;;;;;;;15.12;79.97;101332.81;5096357;28;20444;-52
2021/06/23 10:29:45;;;;;;;22.90;18.42;;;;;;;15.19;81.07;101328.34;5099043;28;20185;-50
2021/06/23 10:32:11;;;;;;;21.52;17.10;;;;;;;15.64;78.70;101328.56;5095830;28;20438;-50
2021/06/23 10:34:36;;;;;;;26.20;18.60;;;;;;;15.68;79.12;101323.28;5096907;27;20030;-52
2021/06/23 10:37:02;;;;;;;25.13;17.95;;;;;;;15.57;81.00;101323.44;5097852;28;20536;-51
2021/06/23 10:39:30;;;;;;;25.92;18.55;;;;;;;15.76;78.89;101322.25;5078904;28;20073;-54
2021/06/23 10:42:03;;;;;;;23.90;18.60;;;;;;;15.54;82.01;101326.97;5079473;28;20043;-52
2021/06/23 10:44:39;;;;;;;28.45;18.63;;;;;;;15.49;79.79;101320.91;5079974;28;20048;-51
2021/06/23 10:47:08;;;;;;;21.55;16.17;;;;;;;15.71;78.31;101320.59;5100615;27;20047;-50
2021/06/23 10:49:55;;;;;;;24.35;16.08;;;;;;;15.73;77.98;101324.94;5095500;28;20101;-52
2021/06/23 10:52:20;;;;;;;22.17;16.58;;;;;;;15.78;79.62;101325.75;5098015;27;20058;-52
2021/06/23 10:54:47;;;;;;;21.30;16.45;;;;;;;16.11;77.63;101320.81;5098089;28;20046;-52
2021/06/23 10:57:24;;;;;;;23.38;16.70;;;;;;;15.84;75.96;101327.44;5096035;27;20111;-51
2021/06/23 10:59:52;;;;;;;25.02;17.13;;;;;;;15.80;76.86;101331.03;5097282;28;20071;-53
2021/06/23 11:02:26;;;;;;;23.38;17.77;;;;;;;15.82;78.12;101327.47;5096553;27;20047;-51
2021/06/23 11:04:57;;;;;;;20.13;15.32;;;;;;;15.79;77.90;101329.25;5095578;27;20039;-52
2021/06/23 11:07:37;;;;;;;22.55;16.80;;;;;;;15.87;76.24;101334.41;5094983;27;20366;-50
2021/06/23 11:10:27;;;;;;;21.85;16.23;;;;;;;15.94;75.30;101329.03;5092553;27;20508;-53
2021/06/23 11:12:55;;;;;;;22.70;14.57;;;;;;;15.88;77.01;101333.50;5097271;27;20047;-51
2021/06/23 11:15:36;;;;;;;18.90;15.10;;;;;;;15.82;78.93;101330.09;5096637;27;20047;-50
2021/06/23 11:18:28;;;;;;;18.15;14.65;;;;;;;16.25;76.46;101317.94;5095212;28;20173;-54
2021/06/23 11:21:08;;;;;;;18.77;15.95;;;;;;;16.22;75.89;101323.28;5096289;28;20046;-50
2021/06/23 11:23:45;;;;;;;22.48;16.60;;;;;;;16.33;76.06;101320.44;5075697;27;20052;-51
2021/06/23 11:26:20;;;;;;;17.13;14.45;;;;;;;16.58;74.63;101320.00;5096929;27;20052;-50
2021/06/23 11:28:54;;;;;;;17.52;15.57;;;;;;;16.65;74.83;101316.31;5095451;28;20055;-50
2021/06/23 11:31:21;;;;;;;20.00;15.82;;;;;;;16.88;73.98;101318.50;5096638;27;20476;-50
2021/06/23 11:33:50;;;;;;;23.55;17.52;;;;;;;16.72;74.43;101319.72;5096438;27;20400;-51
2021/06/23 11:36:20;;;;;;;21.67;15.20;;;;;;;17.04;73.33;101316.44;5096526;28;20036;-50
2021/06/23 11:38:47;;;;;;;19.20;15.98;;;;;;;16.77;75.18;101320.50;5077026;28;20044;-50
2021/06/23 11:41:14;;;;;;;19.77;15.52;;;;;;;16.68;74.15;101321.53;5094495;28;20039;-53